sensor_id;sensor_type;location;lat;lon;timestamp;temperature;humidity
52435;DHT22;38354;52.892;6.148;2022-11-23T04:00:32;8.00;99.90
52435;DHT22;38354;52.892;6.148;2022-11-23T04:02:58;7.90;99.90
52435;DHT22;38354;52.892;6.148;2022-11-23T04:05:24;7.90;99.90
52435;DHT22;38354;52.892;6.148;2022-11-23T04:07:51;7.90;99.90
52435;DHT22;38354;52.892;6.148;2022-11-23T04:10:17;7.90;99.90
52435;DHT22;38354;52.892;6.148;2022-11-23T04:12:43;7.80;99.90
52435;DHT22;38354;52.892;6.148;2022-11-23T04:15:10;7.80;99.90
52435;DHT22;38354;52.892;6.148;2022-11-23T04:17:35;7.80;99.90
52435;DHT22;38354;52.892;6.148;2022-11-23T04:20:01;7.80;99.90
52435;DHT22;38354;52.892;6.148;2022-11-23T04:22:27;7.80;99.90
52435;DHT22;38354;52.892;6.148;2022-11-23T04:24:52;7.80;99.90
52435;DHT22;38354;52.892;6.148;2022-11-23T04:27:18;7.70;99.90
52435;DHT22;38354;52.892;6.148;2022-11-23T04:29:43;7.70;99.90
52435;DHT22;38354;52.892;6.148;2022-11-23T04:32:09;7.70;99.90
52435;DHT22;38354;52.892;6.148;2022-11-23T04:34:35;7.70;99.90
52435;DHT22;38354;52.892;6.148;2022-11-23T04:37:00;7.70;99.90
52435;DHT22;38354;52.892;6.148;2022-11-23T04:39:26;7.70;99.90
52435;DHT22;38354;52.892;6.148;2022-11-23T04:41:51;7.70;99.90
52435;DHT22;38354;52.892;6.148;2022-11-23T04:44:17;7.70;99.90
52435;DHT22;38354;52.892;6.148;2022-11-23T04:46:45;7.70;99.90
52435;DHT22;38354;52.892;6.148;2022-11-23T04:49:11;7.70;99.90
52435;DHT22;38354;52.892;6.148;2022-11-23T04:51:37;7.70;99.90
52435;DHT22;38354;52.892;6.148;2022-11-23T04:54:03;7.80;99.90
52435;DHT22;38354;52.892;6.148;2022-11-23T04:56:29;7.70;99.90
52435;DHT22;38354;52.892;6.148;2022-11-23T04:58:54;7.70;99.90
52435;DHT22;38354;52.892;6.148;2022-11-23T05:01:20;7.80;99.90
52435;DHT22;38354;52.892;6.148;2022-11-23T05:03:46;7.80;99.90
52435;DHT22;38354;52.892;6.148;2022-11-23T05:06:11;7.80;99.90
52435;DHT22;38354;52.892;6.148;2022-11-23T05:08:37;7.80;99.90
52435;DHT22;38354;52.892;6.148;2022-11-23T05:11:03;7.80;99.90
52435;DHT22;38354;52.892;6.148;2022-11-23T05:13:28;7.80;99.90
52435;DHT22;38354;52.892;6.148;2022-11-23T05:15:54;7.80;99.90
52435;DHT22;38354;52.892;6.148;2022-11-23T05:18:19;7.80;99.90
52435;DHT22;38354;52.892;6.148;2022-11-23T05:20:45;7.80;99.90
52435;DHT22;38354;52.892;6.148;2022-11-23T05:23:11;7.90;99.90
52435;DHT22;38354;52.892;6.148;2022-11-23T05:25:37;7.90;99.90
52435;DHT22;38354;52.892;6.148;2022-11-23T05:28:03;7.90;99.90
52435;DHT22;38354;52.892;6.148;2022-11-23T05:30:29;7.90;99.90
52435;DHT22;38354;52.892;6.148;2022-11-23T05:33:02;7.90;99.90
52435;DHT22;38354;52.892;6.148;2022-11-23T05:35:28;7.90;99.90
52435;DHT22;38354;52.892;6.148;2022-11-23T05:37:54;7.90;99.90
52435;DHT22;38354;52.892;6.148;2022-11-23T05:40:20;7.90;99.90
52435;DHT22;38354;52.892;6.148;2022-11-23T05:42:46;7.90;99.90
52435;DHT22;38354;52.892;6.148;2022-11-23T05:45:11;7.90;99.90
52435;DHT22;38354;52.892;6.148;2022-11-23T05:47:37;7.90;99.90
52435;DHT22;38354;52.892;6.148;2022-11-23T05:50:03;7.90;99.90
52435;DHT22;38354;52.892;6.148;2022-11-23T05:52:29;7.90;99.90
52435;DHT22;38354;52.892;6.148;2022-11-23T05:54:54;7.90;99.90
52435;DHT22;38354;52.892;6.148;2022-11-23T05:57:20;7.90;99.90
52435;DHT22;38354;52.892;6.148;2022-11-23T05:59:47;7.90;99.90
52435;DHT22;38354;52.892;6.148;2022-11-23T06:02:12;7.90;99.90
52435;DHT22;38354;52.892;6.148;2022-11-23T06:07:14;7.90;99.90
52435;DHT22;38354;52.892;6.148;2022-11-23T06:09:39;7.90;99.90
52435;DHT22;38354;52.892;6.148;2022-11-23T06:12:05;7.90;99.90
52435;DHT22;38354;52.892;6.148;2022-11-23T06:14:31;7.90;99.90
52435;DHT22;38354;52.892;6.148;2022-11-23T06:16:56;7.90;99.90
52435;DHT22;38354;52.892;6.148;2022-11-23T06:19:22;7.90;99.90
52435;DHT22;38354;52.892;6.148;2022-11-23T06:21:48;7.80;99.90
52435;DHT22;38354;52.892;6.148;2022-11-23T06:24:13;7.80;99.90
52435;DHT22;38354;52.892;6.148;2022-11-23T06:26:39;7.80;99.90
52435;DHT22;38354;52.892;6.148;2022-11-23T06:29:04;7.80;99.90
52435;DHT22;38354;52.892;6.148;2022-11-23T06:31:30;7.80;99.90
52435;DHT22;38354;52.892;6.148;2022-11-23T06:33:56;7.80;99.90
52435;DHT22;38354;52.892;6.148;2022-11-23T06:36:21;7.70;99.90
52435;DHT22;38354;52.892;6.148;2022-11-23T06:38:47;7.70;99.90
52435;DHT22;38354;52.892;6.148;2022-11-23T06:41:13;7.70;99.90
52435;DHT22;38354;52.892;6.148;2022-11-23T06:43:38;7.60;99.90
52435;DHT22;38354;52.892;6.148;2022-11-23T06:46:05;7.60;99.90
52435;DHT22;38354;52.892;6.148;2022-11-23T06:48:34;7.50;99.90
52435;DHT22;38354;52.892;6.148;2022-11-23T06:51:00;7.60;99.90
52435;DHT22;38354;52.892;6.148;2022-11-23T06:53:27;7.50;99.90
52435;DHT22;38354;52.892;6.148;2022-11-23T06:55:58;7.50;99.90
52435;DHT22;38354;52.892;6.148;2022-11-23T06:58:24;7.40;99.90
52435;DHT22;38354;52.892;6.148;2022-11-23T07:00:50;7.40;99.90
52435;DHT22;38354;52.892;6.148;2022-11-23T07:03:23;7.50;99.90
52435;DHT22;38354;52.892;6.148;2022-11-23T07:05:49;7.40;99.90
52435;DHT22;38354;52.892;6.148;2022-11-23T07:08:15;7.40;99.90
52435;DHT22;38354;52.892;6.148;2022-11-23T07:10:40;7.40;99.90
52435;DHT22;38354;52.892;6.148;2022-11-23T07:13:07;7.50;99.90
52435;DHT22;38354;52.892;6.148;2022-11-23T07:15:34;7.50;99.90
52435;DHT22;38354;52.892;6.148;2022-11-23T07:18:00;7.50;99.90
52435;DHT22;38354;52.892;6.148;2022-11-23T07:20:27;7.50;99.90
52435;DHT22;38354;52.892;6.148;2022-11-23T07:23:03;7.60;99.90
52435;DHT22;38354;52.892;6.148;2022-11-23T07:25:30;7.60;99.90
52435;DHT22;38354;52.892;6.148;2022-11-23T07:27:57;7.70;99.90
52435;DHT22;38354;52.892;6.148;2022-11-23T07:30:24;7.70;99.90
52435;DHT22;38354;52.892;6.148;2022-11-23T07:32:50;7.70;99.90
52435;DHT22;38354;52.892;6.148;2022-11-23T07:35:17;7.70;99.90
52435;DHT22;38354;52.892;6.148;2022-11-23T07:37:43;7.70;99.90
52435;DHT22;38354;52.892;6.148;2022-11-23T07:40:09;7.80;99.90
52435;DHT22;38354;52.892;6.148;2022-11-23T07:42:35;7.80;99.90
52435;DHT22;38354;52.892;6.148;2022-11-23T07:45:01;7.80;99.90
52435;DHT22;38354;52.892;6.148;2022-11-23T07:47:27;7.80;99.90
52435;DHT22;38354;52.892;6.148;2022-11-23T07:49:53;7.80;99.90
52435;DHT22;38354;52.892;6.148;2022-11-23T07:52:18;7.90;99.90
52435;DHT22;38354;52.892;6.148;2022-11-23T07:54:44;7.90;99.90
52435;DHT22;38354;52.892;6.148;2022-11-23T07:57:10;7.90;99.90
52435;DHT22;38354;52.892;6.148;2022-11-23T07:59:35;7.90;99.90
52435;DHT22;38354;52.892;6.148;2022-11-23T08:02:01;8.00;99.90
52435;DHT22;38354;52.892;6.148;2022-11-23T08:04:27;8.00;99.90
52435;DHT22;38354;52.892;6.148;2022-11-23T08:06:53;8.00;99.90
52435;DHT22;38354;52.892;6.148;2022-11-23T08:09:19;8.00;99.90
52435;DHT22;38354;52.892;6.148;2022-11-23T08:11:45;8.10;99.90
52435;DHT22;38354;52.892;6.148;2022-11-23T08:14:11;8.10;99.90
52435;DHT22;38354;52.892;6.148;2022-11-23T08:16:37;8.10;99.90
52435;DHT22;38354;52.892;6.148;2022-11-23T08:19:02;8.20;99.90
52435;DHT22;38354;52.892;6.148;2022-11-23T08:21:28;8.20;99.90
52435;DHT22;38354;52.892;6.148;2022-11-23T08:23:54;8.20;99.90
52435;DHT22;38354;52.892;6.148;2022-11-23T08:26:20;8.20;99.90
52435;DHT22;38354;52.892;6.148;2022-11-23T08:28:46;8.20;99.90
52435;DHT22;38354;52.892;6.148;2022-11-23T08:31:12;8.20;99.90
52435;DHT22;38354;52.892;6.148;2022-11-23T08:33:39;8.20;99.90
52435;DHT22;38354;52.892;6.148;2022-11-23T08:36:06;8.20;99.90
52435;DHT22;38354;52.892;6.148;2022-11-23T08:38:33;8.30;99.90
52435;DHT22;38354;52.892;6.148;2022-11-23T08:41:00;8.20;99.90
52435;DHT22;38354;52.892;6.148;2022-11-23T08:43:27;8.20;99.90
52435;DHT22;38354;52.892;6.148;2022-11-23T08:45:57;8.20;99.90
52435;DHT22;38354;52.892;6.148;2022-11-23T08:48:23;8.20;99.90
52435;DHT22;38354;52.892;6.148;2022-11-23T08:50:49;8.20;99.90
52435;DHT22;38354;52.892;6.148;2022-11-23T08:53:15;8.30;99.90
52435;DHT22;38354;52.892;6.148;2022-11-23T08:55:40;8.30;99.90
52435;DHT22;38354;52.892;6.148;2022-11-23T08:58:06;8.30;99.90
52435;DHT22;38354;52.892;6.148;2022-11-23T09:00:33;8.30;99.90
52435;DHT22;38354;52.892;6.148;2022-11-23T09:03:00;8.30;99.90
52435;DHT22;38354;52.892;6.148;2022-11-23T09:05:27;8.40;99.90
52435;DHT22;38354;52.892;6.148;2022-11-23T09:07:59;8.40;99.90
52435;DHT22;38354;52.892;6.148;2022-11-23T09:10:26;8.40;99.90
52435;DHT22;38354;52.892;6.148;2022-11-23T09:12:52;8.40;99.90
52435;DHT22;38354;52.892;6.148;2022-11-23T09:15:18;8.40;99.90
52435;DHT22;38354;52.892;6.148;2022-11-23T09:17:44;8.40;99.90
52435;DHT22;38354;52.892;6.148;2022-11-23T09:20:10;8.40;99.90
52435;DHT22;38354;52.892;6.148;2022-11-23T09:22:36;8.50;99.90
52435;DHT22;38354;52.892;6.148;2022-11-23T09:25:02;8.50;99.90
52435;DHT22;38354;52.892;6.148;2022-11-23T09:27:28;8.50;99.90
52435;DHT22;38354;52.892;6.148;2022-11-23T09:29:54;8.50;99.90
52435;DHT22;38354;52.892;6.148;2022-11-23T09:32:19;8.40;99.90
52435;DHT22;38354;52.892;6.148;2022-11-23T09:34:45;8.50;99.90
52435;DHT22;38354;52.892;6.148;2022-11-23T09:37:12;8.50;99.90
52435;DHT22;38354;52.892;6.148;2022-11-23T09:39:37;8.50;99.90
52435;DHT22;38354;52.892;6.148;2022-11-23T09:50:50;8.60;99.90
52435;DHT22;38354;52.892;6.148;2022-11-23T09:53:27;8.60;99.90
52435;DHT22;38354;52.892;6.148;2022-11-23T09:55:55;8.60;99.90
52435;DHT22;38354;52.892;6.148;2022-11-23T09:58:23;8.60;99.90
52435;DHT22;38354;52.892;6.148;2022-11-23T10:03:28;8.60;99.90
52435;DHT22;38354;52.892;6.148;2022-11-23T10:06:32;8.60;99.90
52435;DHT22;38354;52.892;6.148;2022-11-23T10:08:58;8.60;99.90
52435;DHT22;38354;52.892;6.148;2022-11-23T10:22:59;8.70;99.90
52435;DHT22;38354;52.892;6.148;2022-11-23T10:25:30;8.70;99.90
52435;DHT22;38354;52.892;6.148;2022-11-23T10:28:03;8.70;99.90
52435;DHT22;38354;52.892;6.148;2022-11-23T10:30:31;8.80;99.90
52435;DHT22;38354;52.892;6.148;2022-11-23T10:33:04;8.80;99.90
52435;DHT22;38354;52.892;6.148;2022-11-23T10:35:35;8.90;99.90
52435;DHT22;38354;52.892;6.148;2022-11-23T10:38:16;9.00;99.90
52435;DHT22;38354;52.892;6.148;2022-11-23T10:43:40;9.10;99.90
52435;DHT22;38354;52.892;6.148;2022-11-23T10:48:53;9.10;99.90
52435;DHT22;38354;52.892;6.148;2022-11-23T10:53:55;9.40;99.90
52435;DHT22;38354;52.892;6.148;2022-11-23T10:56:21;9.60;99.90
52435;DHT22;38354;52.892;6.148;2022-11-23T10:58:47;9.80;99.90
52435;DHT22;38354;52.892;6.148;2022-11-23T11:01:16;10.10;99.90
52435;DHT22;38354;52.892;6.148;2022-11-23T11:03:43;10.30;99.90
52435;DHT22;38354;52.892;6.148;2022-11-23T11:06:09;10.60;99.90
52435;DHT22;38354;52.892;6.148;2022-11-23T11:09:04;10.90;99.90
52435;DHT22;38354;52.892;6.148;2022-11-23T11:11:44;11.10;99.90
52435;DHT22;38354;52.892;6.148;2022-11-23T11:14:19;11.20;99.90
52435;DHT22;38354;52.892;6.148;2022-11-23T11:16:53;11.20;99.90
52435;DHT22;38354;52.892;6.148;2022-11-23T11:19:39;11.10;99.90
52435;DHT22;38354;52.892;6.148;2022-11-23T11:22:25;11.00;99.90
52435;DHT22;38354;52.892;6.148;2022-11-23T11:24:51;11.00;99.90
52435;DHT22;38354;52.892;6.148;2022-11-23T11:27:22;11.10;99.90
52435;DHT22;38354;52.892;6.148;2022-11-23T11:29:51;11.10;99.90
52435;DHT22;38354;52.892;6.148;2022-11-23T11:32:46;11.10;99.90
52435;DHT22;38354;52.892;6.148;2022-11-23T11:35:24;11.20;99.90
52435;DHT22;38354;52.892;6.148;2022-11-23T11:37:53;11.30;99.90
52435;DHT22;38354;52.892;6.148;2022-11-23T11:40:33;11.40;99.90
52435;DHT22;38354;52.892;6.148;2022-11-23T11:45:38;11.50;99.90
52435;DHT22;38354;52.892;6.148;2022-11-23T11:50:53;11.70;99.90
52435;DHT22;38354;52.892;6.148;2022-11-23T11:53:27;11.80;99.90
52435;DHT22;38354;52.892;6.148;2022-11-23T11:56:10;11.80;99.90
52435;DHT22;38354;52.892;6.148;2022-11-23T11:58:36;11.80;99.90
52435;DHT22;38354;52.892;6.148;2022-11-23T12:01:27;11.80;99.90
52435;DHT22;38354;52.892;6.148;2022-11-23T12:04:06;11.80;99.90
52435;DHT22;38354;52.892;6.148;2022-11-23T12:06:38;11.80;99.90
52435;DHT22;38354;52.892;6.148;2022-11-23T12:09:21;11.80;99.90
52435;DHT22;38354;52.892;6.148;2022-11-23T12:11:49;11.90;99.90
52435;DHT22;38354;52.892;6.148;2022-11-23T12:14:15;11.90;99.90
52435;DHT22;38354;52.892;6.148;2022-11-23T12:19:36;11.70;99.90
52435;DHT22;38354;52.892;6.148;2022-11-23T12:27:45;11.80;99.90
52435;DHT22;38354;52.892;6.148;2022-11-23T12:30:19;11.80;99.90
52435;DHT22;38354;52.892;6.148;2022-11-23T12:33:14;11.80;99.90
52435;DHT22;38354;52.892;6.148;2022-11-23T12:36:08;11.70;99.90
52435;DHT22;38354;52.892;6.148;2022-11-23T12:41:55;11.80;99.90
52435;DHT22;38354;52.892;6.148;2022-11-23T12:47:25;12.00;99.90
52435;DHT22;38354;52.892;6.148;2022-11-23T12:52:59;12.10;99.90
52435;DHT22;38354;52.892;6.148;2022-11-23T12:58:13;12.10;99.90
52435;DHT22;38354;52.892;6.148;2022-11-23T13:01:06;12.10;99.90
52435;DHT22;38354;52.892;6.148;2022-11-23T13:06:37;12.00;99.90
52435;DHT22;38354;52.892;6.148;2022-11-23T13:09:43;11.80;99.90
52435;DHT22;38354;52.892;6.148;2022-11-23T13:12:25;11.80;99.90
52435;DHT22;38354;52.892;6.148;2022-11-23T13:18:12;11.40;99.90
52435;DHT22;38354;52.892;6.148;2022-11-23T13:23:36;11.00;99.90
52435;DHT22;38354;52.892;6.148;2022-11-23T13:26:26;11.00;99.90
52435;DHT22;38354;52.892;6.148;2022-11-23T13:28:56;11.40;99.90
52435;DHT22;38354;52.892;6.148;2022-11-23T13:31:30;11.90;99.90
52435;DHT22;38354;52.892;6.148;2022-11-23T13:34:06;12.10;99.90
52435;DHT22;38354;52.892;6.148;2022-11-23T13:36:59;12.20;99.90
52435;DHT22;38354;52.892;6.148;2022-11-23T13:42:10;12.00;99.90
52435;DHT22;38354;52.892;6.148;2022-11-23T13:44:36;11.90;99.90
52435;DHT22;38354;52.892;6.148;2022-11-23T13:49:50;11.70;99.90
52435;DHT22;38354;52.892;6.148;2022-11-23T13:54:59;11.70;99.90
52435;DHT22;38354;52.892;6.148;2022-11-23T13:57:26;11.80;99.90
52435;DHT22;38354;52.892;6.148;2022-11-23T13:59:51;11.90;99.90
52435;DHT22;38354;52.892;6.148;2022-11-23T14:02:27;12.00;99.90
52435;DHT22;38354;52.892;6.148;2022-11-23T14:05:29;12.00;99.90
52435;DHT22;38354;52.892;6.148;2022-11-23T14:07:55;11.80;99.90
52435;DHT22;38354;52.892;6.148;2022-11-23T14:10:23;11.60;99.90
52435;DHT22;38354;52.892;6.148;2022-11-23T14:12:56;11.50;99.90
52435;DHT22;38354;52.892;6.148;2022-11-23T14:15:28;11.40;99.90
52435;DHT22;38354;52.892;6.148;2022-11-23T14:23:56;11.00;99.90
52435;DHT22;38354;52.892;6.148;2022-11-23T14:34:49;10.30;99.90
52435;DHT22;38354;52.892;6.148;2022-11-23T14:43:11;10.00;99.90
52435;DHT22;38354;52.892;6.148;2022-11-23T14:45:38;9.90;99.90
52435;DHT22;38354;52.892;6.148;2022-11-23T14:48:30;9.80;99.90
52435;DHT22;38354;52.892;6.148;2022-11-23T14:51:04;9.70;99.90
52435;DHT22;38354;52.892;6.148;2022-11-23T14:53:41;9.70;99.90
52435;DHT22;38354;52.892;6.148;2022-11-23T14:59:45;9.70;99.90
52435;DHT22;38354;52.892;6.148;2022-11-23T15:04:29;9.70;99.90
52435;DHT22;38354;52.892;6.148;2022-11-23T15:07:14;9.70;99.90
52435;DHT22;38354;52.892;6.148;2022-11-23T15:10:23;9.60;99.90
52435;DHT22;38354;52.892;6.148;2022-11-23T15:12:51;9.60;99.90
52435;DHT22;38354;52.892;6.148;2022-11-23T15:15:25;9.60;99.90
52435;DHT22;38354;52.892;6.148;2022-11-23T15:17:58;9.60;99.90
52435;DHT22;38354;52.892;6.148;2022-11-23T15:20:32;9.50;99.90
52435;DHT22;38354;52.892;6.148;2022-11-23T15:23:02;9.50;99.90
52435;DHT22;38354;52.892;6.148;2022-11-23T15:25:28;9.30;99.90
52435;DHT22;38354;52.892;6.148;2022-11-23T15:27:55;9.30;99.90
52435;DHT22;38354;52.892;6.148;2022-11-23T15:33:01;9.20;99.90
52435;DHT22;38354;52.892;6.148;2022-11-23T15:35:32;9.20;99.90
52435;DHT22;38354;52.892;6.148;2022-11-23T15:37:58;9.10;99.90
52435;DHT22;38354;52.892;6.148;2022-11-23T15:40:28;9.10;99.90
52435;DHT22;38354;52.892;6.148;2022-11-23T15:42:55;9.10;99.90
52435;DHT22;38354;52.892;6.148;2022-11-23T15:48:21;9.10;99.90
52435;DHT22;38354;52.892;6.148;2022-11-23T15:50:51;9.00;99.90
52435;DHT22;38354;52.892;6.148;2022-11-23T15:53:20;9.00;99.90
52435;DHT22;38354;52.892;6.148;2022-11-23T15:55:49;9.00;99.90
52435;DHT22;38354;52.892;6.148;2022-11-23T15:58:19;9.10;99.90
52435;DHT22;38354;52.892;6.148;2022-11-23T16:00:50;9.10;99.90
52435;DHT22;38354;52.892;6.148;2022-11-23T16:03:46;9.00;99.90
52435;DHT22;38354;52.892;6.148;2022-11-23T16:06:26;9.10;99.90
52435;DHT22;38354;52.892;6.148;2022-11-23T16:08:52;9.00;99.90
52435;DHT22;38354;52.892;6.148;2022-11-23T16:13:44;9.00;99.90
52435;DHT22;38354;52.892;6.148;2022-11-23T16:16:20;9.00;99.90
52435;DHT22;38354;52.892;6.148;2022-11-23T16:18:48;9.00;99.90
52435;DHT22;38354;52.892;6.148;2022-11-23T16:21:18;9.00;99.90
52435;DHT22;38354;52.892;6.148;2022-11-23T16:23:52;9.00;99.90
52435;DHT22;38354;52.892;6.148;2022-11-23T16:26:20;9.00;99.90
52435;DHT22;38354;52.892;6.148;2022-11-23T16:28:56;8.90;99.90
52435;DHT22;38354;52.892;6.148;2022-11-23T16:33:54;8.90;99.90
52435;DHT22;38354;52.892;6.148;2022-11-23T16:36:20;8.80;99.90
52435;DHT22;38354;52.892;6.148;2022-11-23T16:38:46;8.80;99.90
52435;DHT22;38354;52.892;6.148;2022-11-23T16:41:12;8.80;99.90
52435;DHT22;38354;52.892;6.148;2022-11-23T16:43:37;8.70;99.90
52435;DHT22;38354;52.892;6.148;2022-11-23T16:46:03;8.70;99.90
52435;DHT22;38354;52.892;6.148;2022-11-23T16:48:41;8.60;99.90
52435;DHT22;38354;52.892;6.148;2022-11-23T16:51:09;8.60;99.90
52435;DHT22;38354;52.892;6.148;2022-11-23T16:53:36;8.60;99.90
52435;DHT22;38354;52.892;6.148;2022-11-23T16:56:02;8.60;99.90
52435;DHT22;38354;52.892;6.148;2022-11-23T16:58:33;8.60;99.90
52435;DHT22;38354;52.892;6.148;2022-11-23T17:01:00;8.60;99.90
52435;DHT22;38354;52.892;6.148;2022-11-23T17:03:27;8.50;99.90
52435;DHT22;38354;52.892;6.148;2022-11-23T17:05:54;8.50;99.90
52435;DHT22;38354;52.892;6.148;2022-11-23T17:08:20;8.50;99.90
52435;DHT22;38354;52.892;6.148;2022-11-23T17:10:47;8.50;99.90
52435;DHT22;38354;52.892;6.148;2022-11-23T17:13:25;8.50;99.90
52435;DHT22;38354;52.892;6.148;2022-11-23T17:15:51;8.50;99.90
52435;DHT22;38354;52.892;6.148;2022-11-23T17:18:17;8.50;99.90
52435;DHT22;38354;52.892;6.148;2022-11-23T17:20:43;8.50;99.90
52435;DHT22;38354;52.892;6.148;2022-11-23T17:23:09;8.50;99.90
52435;DHT22;38354;52.892;6.148;2022-11-23T17:25:36;8.50;99.90
52435;DHT22;38354;52.892;6.148;2022-11-23T17:28:03;8.50;99.90
52435;DHT22;38354;52.892;6.148;2022-11-23T17:30:29;8.50;99.90
52435;DHT22;38354;52.892;6.148;2022-11-23T17:32:57;8.50;99.90
52435;DHT22;38354;52.892;6.148;2022-11-23T17:35:24;8.40;99.90
52435;DHT22;38354;52.892;6.148;2022-11-23T17:37:50;8.40;99.90
52435;DHT22;38354;52.892;6.148;2022-11-23T17:40:20;8.40;99.90
52435;DHT22;38354;52.892;6.148;2022-11-23T17:42:46;8.40;99.90
52435;DHT22;38354;52.892;6.148;2022-11-23T17:45:12;8.40;99.90
52435;DHT22;38354;52.892;6.148;2022-11-23T17:47:40;8.40;99.90
52435;DHT22;38354;52.892;6.148;2022-11-23T17:50:11;8.40;99.90
52435;DHT22;38354;52.892;6.148;2022-11-23T17:52:37;8.30;99.90
52435;DHT22;38354;52.892;6.148;2022-11-23T17:55:08;8.30;99.90
52435;DHT22;38354;52.892;6.148;2022-11-23T17:57:34;8.30;99.90
52435;DHT22;38354;52.892;6.148;2022-11-23T18:00:00;8.20;99.90
52435;DHT22;38354;52.892;6.148;2022-11-23T18:02:26;8.20;99.90
52435;DHT22;38354;52.892;6.148;2022-11-23T18:04:51;8.20;99.90
52435;DHT22;38354;52.892;6.148;2022-11-23T18:07:17;8.20;99.90
52435;DHT22;38354;52.892;6.148;2022-11-23T18:09:42;8.20;99.90
52435;DHT22;38354;52.892;6.148;2022-11-23T18:12:09;8.20;99.90
52435;DHT22;38354;52.892;6.148;2022-11-23T18:14:34;8.20;99.90
52435;DHT22;38354;52.892;6.148;2022-11-23T18:17:03;8.20;99.90
52435;DHT22;38354;52.892;6.148;2022-11-23T18:19:28;8.20;99.90
52435;DHT22;38354;52.892;6.148;2022-11-23T18:21:54;8.30;99.90
52435;DHT22;38354;52.892;6.148;2022-11-23T18:24:19;8.20;99.90
52435;DHT22;38354;52.892;6.148;2022-11-23T18:26:45;8.20;99.90
52435;DHT22;38354;52.892;6.148;2022-11-23T18:29:11;8.20;99.90
52435;DHT22;38354;52.892;6.148;2022-11-23T18:31:36;8.20;99.90
52435;DHT22;38354;52.892;6.148;2022-11-23T18:34:02;8.20;99.90
52435;DHT22;38354;52.892;6.148;2022-11-23T18:36:29;8.20;99.90
52435;DHT22;38354;52.892;6.148;2022-11-23T18:38:55;8.20;99.90
52435;DHT22;38354;52.892;6.148;2022-11-23T18:41:21;8.20;99.90
52435;DHT22;38354;52.892;6.148;2022-11-23T18:43:47;8.20;99.90
52435;DHT22;38354;52.892;6.148;2022-11-23T18:46:14;8.20;99.90
52435;DHT22;38354;52.892;6.148;2022-11-23T18:48:47;8.30;99.90
52435;DHT22;38354;52.892;6.148;2022-11-23T18:51:13;8.30;99.90
52435;DHT22;38354;52.892;6.148;2022-11-23T18:53:40;8.30;99.90
52435;DHT22;38354;52.892;6.148;2022-11-23T18:56:07;8.20;99.90
52435;DHT22;38354;52.892;6.148;2022-11-23T18:58:39;8.30;99.90
52435;DHT22;38354;52.892;6.148;2022-11-23T19:01:20;8.30;99.90
52435;DHT22;38354;52.892;6.148;2022-11-23T19:03:48;8.30;99.90
52435;DHT22;38354;52.892;6.148;2022-11-23T19:06:17;8.30;99.90
52435;DHT22;38354;52.892;6.148;2022-11-23T19:08:45;8.30;99.90
52435;DHT22;38354;52.892;6.148;2022-11-23T19:11:19;8.30;99.90
52435;DHT22;38354;52.892;6.148;2022-11-23T19:13:48;8.30;99.90
52435;DHT22;38354;52.892;6.148;2022-11-23T19:16:25;8.40;99.90
52435;DHT22;38354;52.892;6.148;2022-11-23T19:19:03;8.40;99.90
52435;DHT22;38354;52.892;6.148;2022-11-23T19:21:31;8.40;99.90
52435;DHT22;38354;52.892;6.148;2022-11-23T19:23:58;8.40;99.90
52435;DHT22;38354;52.892;6.148;2022-11-23T19:26:25;8.40;99.90
52435;DHT22;38354;52.892;6.148;2022-11-23T19:28:51;8.50;99.90
52435;DHT22;38354;52.892;6.148;2022-11-23T19:31:19;8.50;99.90
52435;DHT22;38354;52.892;6.148;2022-11-23T19:33:47;8.50;99.90
52435;DHT22;38354;52.892;6.148;2022-11-23T19:36:19;8.50;99.90
52435;DHT22;38354;52.892;6.148;2022-11-23T19:38:45;8.50;99.90
52435;DHT22;38354;52.892;6.148;2022-11-23T19:41:12;8.40;99.90
52435;DHT22;38354;52.892;6.148;2022-11-23T19:43:38;8.50;99.90
52435;DHT22;38354;52.892;6.148;2022-11-23T19:46:05;8.50;99.90
52435;DHT22;38354;52.892;6.148;2022-11-23T19:48:32;8.50;99.90
52435;DHT22;38354;52.892;6.148;2022-11-23T19:51:02;8.50;99.90
52435;DHT22;38354;52.892;6.148;2022-11-23T19:53:33;8.50;99.90
52435;DHT22;38354;52.892;6.148;2022-11-23T19:56:04;8.60;99.90
52435;DHT22;38354;52.892;6.148;2022-11-23T19:58:31;8.50;99.90
52435;DHT22;38354;52.892;6.148;2022-11-23T20:01:03;8.60;99.90
52435;DHT22;38354;52.892;6.148;2022-11-23T20:03:32;8.60;99.90
52435;DHT22;38354;52.892;6.148;2022-11-23T20:06:00;8.60;99.90
52435;DHT22;38354;52.892;6.148;2022-11-23T20:08:26;8.60;99.90
52435;DHT22;38354;52.892;6.148;2022-11-23T20:10:53;8.60;99.90
52435;DHT22;38354;52.892;6.148;2022-11-23T20:13:19;8.60;99.90
52435;DHT22;38354;52.892;6.148;2022-11-23T20:15:45;8.70;99.90
52435;DHT22;38354;52.892;6.148;2022-11-23T20:18:16;8.60;99.90
52435;DHT22;38354;52.892;6.148;2022-11-23T20:20:44;8.60;99.90
52435;DHT22;38354;52.892;6.148;2022-11-23T20:23:10;8.60;99.90
52435;DHT22;38354;52.892;6.148;2022-11-23T20:25:38;8.60;99.90
52435;DHT22;38354;52.892;6.148;2022-11-23T20:28:05;8.60;99.90
52435;DHT22;38354;52.892;6.148;2022-11-23T20:30:34;8.60;99.90
52435;DHT22;38354;52.892;6.148;2022-11-23T20:33:00;8.50;99.90
52435;DHT22;38354;52.892;6.148;2022-11-23T20:35:26;8.50;99.90
52435;DHT22;38354;52.892;6.148;2022-11-23T20:37:52;8.50;99.90
52435;DHT22;38354;52.892;6.148;2022-11-23T20:40:17;8.50;99.90
52435;DHT22;38354;52.892;6.148;2022-11-23T20:42:43;8.50;99.90
52435;DHT22;38354;52.892;6.148;2022-11-23T20:45:09;8.40;99.90
52435;DHT22;38354;52.892;6.148;2022-11-23T20:47:35;8.40;99.90
52435;DHT22;38354;52.892;6.148;2022-11-23T20:50:01;8.30;99.90
52435;DHT22;38354;52.892;6.148;2022-11-23T20:52:27;8.30;99.90
52435;DHT22;38354;52.892;6.148;2022-11-23T20:54:52;8.20;99.90
52435;DHT22;38354;52.892;6.148;2022-11-23T20:57:18;8.20;99.90
52435;DHT22;38354;52.892;6.148;2022-11-23T20:59:45;8.20;99.90
52435;DHT22;38354;52.892;6.148;2022-11-23T21:02:11;8.20;99.90
52435;DHT22;38354;52.892;6.148;2022-11-23T21:04:37;8.10;99.90
52435;DHT22;38354;52.892;6.148;2022-11-23T21:07:02;8.10;99.90
52435;DHT22;38354;52.892;6.148;2022-11-23T21:09:28;8.10;99.90
52435;DHT22;38354;52.892;6.148;2022-11-23T21:11:53;8.10;99.90
52435;DHT22;38354;52.892;6.148;2022-11-23T21:14:37;8.10;99.90
52435;DHT22;38354;52.892;6.148;2022-11-23T21:17:03;8.00;99.90
52435;DHT22;38354;52.892;6.148;2022-11-23T21:19:30;8.00;99.90
52435;DHT22;38354;52.892;6.148;2022-11-23T21:21:57;7.90;99.90
52435;DHT22;38354;52.892;6.148;2022-11-23T21:24:24;7.90;99.90
52435;DHT22;38354;52.892;6.148;2022-11-23T21:26:50;7.90;99.90
52435;DHT22;38354;52.892;6.148;2022-11-23T21:29:16;7.90;99.90
52435;DHT22;38354;52.892;6.148;2022-11-23T21:31:44;7.90;99.90
52435;DHT22;38354;52.892;6.148;2022-11-23T21:34:21;7.80;99.90
52435;DHT22;38354;52.892;6.148;2022-11-23T21:36:47;7.80;99.90
52435;DHT22;38354;52.892;6.148;2022-11-23T21:39:14;7.80;99.90
52435;DHT22;38354;52.892;6.148;2022-11-23T21:41:40;7.80;99.90
52435;DHT22;38354;52.892;6.148;2022-11-23T21:44:07;7.70;99.90
52435;DHT22;38354;52.892;6.148;2022-11-23T21:46:36;7.70;99.90